Time;durP1;ratioP1;P1;durP2;ratioP2;P2;SDS_P1;SDS_P2;PMS_P1;PMS_P2;Temp;Humidity;BMP_temperature;BMP_pressure;BME280_temperature;BME280_humidity;BME280_pressure;Samples;Min_cycle;Max_cycle;Signal;HPM_P1;HPM_P2
2023/01/30 00:00:34;;;;;;;23.00;16.60;;;;;;;1.08;87.43;100216.48;83744;1259;3011543;-73
2023/01/30 00:03:25;;;;;;;24.80;17.40;;;;;;;1.10;87.53;100212.02;82402;1258;3026230;-72
2023/01/30 00:05:57;;;;;;;24.40;16.20;;;;;;;1.11;87.65;100211.33;83697;1258;3011543;-74
2023/01/30 00:08:34;;;;;;;21.20;15.00;;;;;;;1.15;87.65;100206.68;82413;1258;3026242;-75
2023/01/30 00:11:09;;;;;;;20.80;15.10;;;;;;;1.18;87.52;100203.73;83165;1259;3011519;-72
2023/01/30 00:13:44;;;;;;;22.60;16.70;;;;;;;1.18;87.53;100193.09;83152;1259;3011448;-71
2023/01/30 00:16:15;;;;;;;23.00;16.40;;;;;;;1.19;87.54;100181.58;83705;1259;3011633;-73
2023/01/30 00:18:47;;;;;;;25.20;16.30;;;;;;;1.19;87.36;100174.72;82374;1258;3025772;-72
2023/01/30 00:21:20;;;;;;;22.90;15.80;;;;;;;1.18;87.47;100169.90;83719;1258;3011925;-73
2023/01/30 00:23:52;;;;;;;22.60;15.50;;;;;;;1.20;87.41;100165.27;82418;1258;3025642;-73
2023/01/30 00:26:26;;;;;;;20.50;15.30;;;;;;;1.21;87.47;100164.55;83680;1261;3011567;-75
2023/01/30 00:28:58;;;;;;;21.60;16.40;;;;;;;1.23;87.48;100155.96;82387;1260;3025820;-75
2023/01/30 00:31:33;;;;;;;23.50;16.00;;;;;;;1.24;87.36;100151.33;83690;1259;3011613;-75
2023/01/30 00:34:05;;;;;;;20.80;15.00;;;;;;;1.20;87.38;100149.61;82399;1259;3026471;-74
2023/01/30 00:36:36;;;;;;;20.40;14.40;;;;;;;1.19;87.39;100141.54;83712;1261;3011362;-73
2023/01/30 00:39:09;;;;;;;19.40;13.90;;;;;;;1.18;87.37;100139.66;82276;1259;3027255;-73
2023/01/30 00:47:24;;;;;;;21.70;14.80;;;;;;;1.17;87.58;100118.19;82374;1261;3026005;-73
2023/01/30 00:49:55;;;;;;;18.50;13.30;;;;;;;1.18;87.54;100114.92;83697;1259;3011918;-74
2023/01/30 00:52:27;;;;;;;18.80;14.50;;;;;;;1.18;87.59;100105.63;82436;1256;3025127;-72
2023/01/30 00:54:59;;;;;;;20.60;14.80;;;;;;;1.18;87.62;100099.98;83766;1259;3011507;-73
2023/01/30 00:57:31;;;;;;;21.80;15.30;;;;;;;1.19;87.56;100097.39;82425;1256;3027852;-73
2023/01/30 01:00:04;;;;;;;18.30;13.40;;;;;;;1.18;87.61;100086.40;83761;1256;3011421;-73
2023/01/30 01:02:36;;;;;;;17.10;13.10;;;;;;;1.21;87.64;100080.71;82314;1262;3026300;-73
2023/01/30 01:05:09;;;;;;;19.90;13.80;;;;;;;1.22;87.52;100070.92;83785;1261;3011455;-75
2023/01/30 01:07:42;;;;;;;17.80;13.50;;;;;;;1.24;87.50;100063.70;82437;1262;3025947;-74
2023/01/30 01:10:19;;;;;;;18.70;13.50;;;;;;;1.24;87.59;100055.10;83215;1256;3011490;-74
2023/01/30 01:12:53;;;;;;;19.90;13.50;;;;;;;1.25;87.59;100050.45;83244;1261;3011611;-75
2023/01/30 01:15:26;;;;;;;16.80;12.00;;;;;;;1.27;87.53;100038.41;83776;1256;3011530;-74
2023/01/30 01:17:58;;;;;;;14.10;11.90;;;;;;;1.27;87.48;100029.30;82418;1260;3025803;-74
2023/01/30 01:20:29;;;;;;;16.60;11.70;;;;;;;1.26;87.23;100018.66;83736;1260;3013516;-74
2023/01/30 01:23:01;;;;;;;16.50;12.50;;;;;;;1.25;87.26;100013.00;82430;1262;3026274;-73
2023/01/30 01:25:35;;;;;;;14.30;11.30;;;;;;;1.25;87.18;100009.73;83756;1260;3011375;-73
2023/01/30 01:28:07;;;;;;;14.50;11.30;;;;;;;1.25;87.19;99997.37;82420;1262;3026221;-73
2023/01/30 01:30:39;;;;;;;15.70;10.90;;;;;;;1.25;87.09;99993.08;83669;1256;3013249;-74
2023/01/30 01:33:11;;;;;;;15.00;10.70;;;;;;;1.27;87.18;99990.30;82333;1261;3025422;-75
2023/01/30 01:35:46;;;;;;;15.70;11.50;;;;;;;1.28;87.13;99984.28;83574;1264;3013167;-73
2023/01/30 01:38:19;;;;;;;14.90;10.60;;;;;;;1.26;86.91;99981.02;82408;1261;3025465;-71
2023/01/30 01:41:04;;;;;;;13.20;9.80;;;;;;;1.25;86.92;99975.54;83768;1256;3011540;-75
2023/01/30 01:44:02;;;;;;;12.30;9.10;;;;;;;1.25;86.99;99968.66;82443;1256;3026023;-74
2023/01/30 01:46:45;;;;;;;13.90;10.10;;;;;;;1.26;86.99;99959.21;82313;1261;3026599;-74
2023/01/30 01:49:24;;;;;;;15.00;10.80;;;;;;;1.25;86.93;99952.68;82494;1262;3026216;-74
2023/01/30 01:51:59;;;;;;;12.40;9.70;;;;;;;1.24;86.94;99943.59;82456;1256;3026420;-72
2023/01/30 01:54:36;;;;;;;10.00;8.80;;;;;;;1.23;86.93;99941.19;83191;1262;3011318;-71
2023/01/30 01:57:12;;;;;;;11.00;9.70;;;;;;;1.22;86.80;99937.08;83277;1256;3011555;-72
2023/01/30 01:59:49;;;;;;;12.60;10.10;;;;;;;1.22;86.85;99931.56;82495;1262;3025603;-71
2023/01/30 02:02:22;;;;;;;13.00;10.00;;;;;;;1.22;86.89;99930.54;82420;1261;3025747;-73
2023/01/30 02:05:02;;;;;;;11.80;9.30;;;;;;;1.22;86.90;99925.05;83773;1261;3011452;-74
2023/01/30 02:07:37;;;;;;;10.90;8.30;;;;;;;1.20;86.69;99915.95;82410;1256;3025987;-74
2023/01/30 02:10:13;;;;;;;10.10;8.40;;;;;;;1.22;86.75;99919.54;82294;1257;3025478;-74
2023/01/30 02:12:45;;;;;;;11.70;8.70;;;;;;;1.24;86.67;99917.48;82446;1256;3026456;-74
2023/01/30 02:15:17;;;;;;;10.70;8.90;;;;;;;1.24;86.62;99913.70;83776;1256;3011881;-73
2023/01/30 02:17:49;;;;;;;11.70;8.40;;;;;;;1.21;86.37;99905.47;82302;1259;3025635;-72
2023/01/30 02:20:30;;;;;;;13.00;8.30;;;;;;;1.21;86.53;99903.73;83773;1260;3011567;-73
2023/01/30 02:23:27;;;;;;;10.00;7.90;;;;;;;1.23;86.36;99898.92;82333;1262;3025556;-75
2023/01/30 02:26:46;;;;;;;11.00;8.80;;;;;;;1.21;86.34;99899.97;82372;1261;3026017;-74
2023/01/30 02:30:25;;;;;;;10.50;8.60;;;;;;;1.22;86.57;99899.27;82377;1261;3026399;-75
2023/01/30 02:33:06;;;;;;;10.00;7.90;;;;;;;1.24;86.55;99894.63;82396;1260;3026196;-73
2023/01/30 02:35:42;;;;;;;;;;;;;;;1.26;86.39;99892.02;82388;1259;3025884;-72
2023/01/30 02:38:24;;;;;;;10.80;8.30;;;;;;;1.22;86.32;99876.92;82334;1261;3025698;-73
2023/01/30 02:41:06;;;;;;;11.10;8.60;;;;;;;1.26;86.37;99873.64;82364;1258;3025483;-74
2023/01/30 02:43:45;;;;;;;11.10;9.50;;;;;;;1.27;86.16;99869.50;82351;1259;3026492;-73
2023/01/30 02:46:23;;;;;;;12.80;10.10;;;;;;;1.26;86.04;99860.92;82380;1258;3025910;-72
2023/01/30 02:48:58;;;;;;;15.00;10.50;;;;;;;1.23;85.84;99854.59;82370;1258;3026667;-72
2023/01/30 02:51:33;;;;;;;14.60;10.30;;;;;;;1.23;85.90;99843.94;83118;1261;3011648;-73
2023/01/30 02:54:06;;;;;;;14.70;11.10;;;;;;;1.23;85.72;99846.69;83684;1259;3011587;-73
2023/01/30 02:56:51;;;;;;;14.20;10.80;;;;;;;1.22;85.57;99843.60;82420;1256;3026459;-73
2023/01/30 02:59:27;;;;;;;16.10;11.30;;;;;;;1.22;85.63;99835.70;82426;1256;3025849;-72
2023/01/30 03:02:26;;;;;;;15.00;11.20;;;;;;;1.20;85.47;99829.88;83205;1256;3011483;-74
2023/01/30 03:05:16;;;;;;;16.00;10.60;;;;;;;1.15;85.08;99820.29;82448;1256;3026447;-73
2023/01/30 03:07:54;;;;;;;13.10;10.50;;;;;;;1.12;84.98;99819.64;82365;1261;3026407;-73
2023/01/30 03:10:34;;;;;;;14.70;9.60;;;;;;;1.14;84.89;99813.45;82437;1256;3026303;-74
2023/01/30 03:13:14;;;;;;;13.10;10.20;;;;;;;1.13;84.73;99807.60;82444;1256;3025960;-72
2023/01/30 03:15:49;;;;;;;17.00;11.20;;;;;;;1.13;84.69;99802.10;82443;1262;3027561;-70
2023/01/30 03:18:23;;;;;;;16.20;11.20;;;;;;;1.10;84.57;99796.29;83200;1261;3011409;-71
2023/01/30 03:20:54;;;;;;;15.00;10.70;;;;;;;1.05;84.40;99788.09;83795;1256;3014237;-72
2023/01/30 03:23:26;;;;;;;14.00;9.90;;;;;;;1.02;84.48;99772.33;82444;1262;3026102;-72
2023/01/30 03:25:57;;;;;;;14.30;10.20;;;;;;;1.03;84.61;99760.97;83773;1260;3011631;-72
2023/01/30 03:28:31;;;;;;;17.10;11.50;;;;;;;1.05;84.37;99757.53;82446;1262;3026946;-72
2023/01/30 03:31:05;;;;;;;16.90;12.00;;;;;;;1.05;84.37;99748.09;83767;1262;3011581;-72
2023/01/30 03:33:38;;;;;;;17.90;12.50;;;;;;;1.02;84.29;99741.06;82451;1261;3025518;-72
2023/01/30 03:36:10;;;;;;;18.00;11.90;;;;;;;1.00;84.39;99735.92;83749;1262;3011862;-75
2023/01/30 03:38:42;;;;;;;16.30;10.80;;;;;;;0.98;84.59;99726.67;82494;1262;3027661;-74
2023/01/30 03:41:15;;;;;;;17.00;12.00;;;;;;;0.99;84.49;99716.17;83768;1265;3011863;-74
2023/01/30 03:43:47;;;;;;;18.10;12.40;;;;;;;1.00;84.61;99717.55;82476;1262;3027438;-74
2023/01/30 03:46:18;;;;;;;14.70;11.70;;;;;;;0.99;84.61;99710.52;83653;1262;3011267;-72
2023/01/30 03:48:50;;;;;;;17.90;12.70;;;;;;;0.98;84.67;99708.98;82439;1257;3024434;-73
2023/01/30 03:51:22;;;;;;;15.90;11.50;;;;;;;0.93;84.85;99706.80;83763;1260;3011610;-72
2023/01/30 03:53:54;;;;;;;16.00;10.90;;;;;;;0.89;84.71;99705.13;82397;1260;3027171;-72
2023/01/30 03:56:25;;;;;;;16.70;11.70;;;;;;;0.88;85.06;99699.80;83787;1261;3011264;-72
2023/01/30 03:58:57;;;;;;;14.70;11.40;;;;;;;0.87;85.08;99695.85;82450;1260;3026193;-72
2023/01/30 04:01:31;;;;;;;16.50;12.50;;;;;;;0.87;85.22;99696.54;83750;1260;3013335;-73
2023/01/30 04:04:04;;;;;;;17.60;12.70;;;;;;;0.86;85.42;99682.48;82424;1262;3025704;-72
2023/01/30 04:06:35;;;;;;;19.00;11.90;;;;;;;0.83;85.29;99674.61;83777;1260;3012886;-74
2023/01/30 04:09:08;;;;;;;16.80;12.10;;;;;;;0.84;85.33;99669.45;82436;1257;3025519;-74
2023/01/30 04:11:41;;;;;;;16.40;11.80;;;;;;;0.84;85.26;99662.77;83760;1262;3011466;-73
2023/01/30 04:14:13;;;;;;;18.40;12.10;;;;;;;0.85;85.45;99654.67;82441;1262;3027010;-72
2023/01/30 04:16:45;;;;;;;19.10;13.60;;;;;;;0.86;85.47;99654.33;83747;1260;3011513;-73
2023/01/30 04:19:23;;;;;;;19.40;13.80;;;;;;;0.83;85.30;99648.00;82415;1264;3026498;-73
2023/01/30 04:21:56;;;;;;;20.00;13.10;;;;;;;0.79;85.36;99639.11;82420;1256;3026217;-73
2023/01/30 04:24:30;;;;;;;20.10;13.20;;;;;;;0.75;85.17;99628.67;83717;1256;3011578;-72
2023/01/30 04:27:04;;;;;;;18.20;13.20;;;;;;;0.73;85.20;99618.56;82423;1262;3029880;-74
2023/01/30 04:29:37;;;;;;;18.80;12.60;;;;;;;0.71;85.15;99616.87;83790;1262;3011429;-74
2023/01/30 04:32:12;;;;;;;19.30;13.60;;;;;;;0.69;85.12;99615.02;82430;1263;3025964;-74
2023/01/30 04:34:47;;;;;;;19.80;12.70;;;;;;;0.66;85.18;99609.71;83193;1261;3011521;-71
2023/01/30 04:37:18;;;;;;;19.10;13.20;;;;;;;0.65;85.22;99608.17;83758;1261;3011574;-71
2023/01/30 04:39:55;;;;;;;17.60;12.20;;;;;;;0.66;85.15;99602.34;82458;1270;3025842;-74
2023/01/30 04:42:30;;;;;;;19.30;13.20;;;;;;;0.66;85.06;99594.60;82421;1260;3026357;-74
2023/01/30 04:45:01;;;;;;;18.00;13.10;;;;;;;0.66;84.87;99578.30;83745;1260;3012715;-73
2023/01/30 04:47:34;;;;;;;19.20;13.60;;;;;;;0.66;84.99;99570.92;82393;1262;3026139;-71
2023/01/30 04:50:07;;;;;;;18.30;12.20;;;;;;;0.64;84.89;99574.90;83754;1262;3011604;-74
2023/01/30 04:52:39;;;;;;;16.40;11.40;;;;;;;0.61;84.59;99578.36;82388;1260;3025506;-74
2023/01/30 04:55:11;;;;;;;16.00;11.30;;;;;;;0.62;84.72;99573.38;83725;1256;3011488;-74
2023/01/30 04:57:44;;;;;;;17.50;12.20;;;;;;;0.62;84.75;99574.06;82407;1269;3025902;-75
2023/01/30 05:00:19;;;;;;;14.70;11.20;;;;;;;0.61;84.66;99565.48;83757;1270;3011351;-73
2023/01/30 05:02:54;;;;;;;16.60;11.50;;;;;;;0.60;84.54;99562.92;82442;1264;3025616;-73
2023/01/30 05:05:33;;;;;;;15.70;10.90;;;;;;;0.58;84.43;99558.15;83156;1278;3012167;-73
2023/01/30 05:08:06;;;;;;;15.10;10.10;;;;;;;0.55;84.40;99547.19;82417;1264;3026249;-72
2023/01/30 05:10:37;;;;;;;14.00;10.50;;;;;;;0.56;84.49;99535.68;83741;1258;3011628;-73
2023/01/30 05:13:09;;;;;;;14.50;10.80;;;;;;;0.57;84.24;99537.04;82432;1262;3026330;-73
2023/01/30 05:15:41;;;;;;;15.20;10.60;;;;;;;0.54;84.30;99532.09;83780;1257;3011459;-74
2023/01/30 05:18:14;;;;;;;17.20;10.70;;;;;;;0.54;84.47;99525.23;82315;1262;3027284;-74
2023/01/30 05:20:52;;;;;;;13.60;9.80;;;;;;;0.51;84.47;99511.02;83205;1264;3011561;-70
2023/01/30 05:23:25;;;;;;;12.80;9.20;;;;;;;0.48;84.46;99505.56;83194;1256;3011623;-72
2023/01/30 05:26:02;;;;;;;11.90;9.20;;;;;;;0.48;84.30;99505.56;83759;1256;3011517;-72
2023/01/30 05:28:34;;;;;;;12.70;9.60;;;;;;;0.47;84.33;99498.71;82455;1260;3025517;-73
2023/01/30 05:31:11;;;;;;;12.70;9.70;;;;;;;0.47;84.37;99496.47;83778;1269;3013153;-73
2023/01/30 05:33:45;;;;;;;13.30;9.60;;;;;;;0.46;84.26;99490.65;82423;1260;3025863;-73
2023/01/30 05:36:21;;;;;;;13.10;9.10;;;;;;;0.44;84.39;99484.67;82422;1262;3025772;-75
2023/01/30 05:38:53;;;;;;;13.40;9.10;;;;;;;0.44;84.39;99488.11;83729;1262;3011612;-75
2023/01/30 05:41:31;;;;;;;11.90;8.70;;;;;;;0.43;84.18;99486.91;82454;1262;3026439;-75
2023/01/30 05:44:08;;;;;;;12.90;9.40;;;;;;;0.45;84.26;99485.53;82434;1268;3025438;-74
2023/01/30 05:46:43;;;;;;;11.80;9.10;;;;;;;0.45;84.15;99478.66;82414;1262;3025491;-74
2023/01/30 05:49:18;;;;;;;13.50;9.60;;;;;;;0.44;84.13;99465.98;82447;1262;3025441;-75
2023/01/30 05:51:57;;;;;;;13.50;9.10;;;;;;;0.43;84.13;99463.58;82447;1272;3026963;-74
2023/01/30 05:54:31;;;;;;;10.80;8.30;;;;;;;0.43;83.85;99459.81;82489;1270;3026781;-74
2023/01/30 05:57:06;;;;;;;11.00;8.90;;;;;;;0.45;83.94;99460.83;83712;1256;3013647;-74
2023/01/30 05:59:46;;;;;;;13.10;9.40;;;;;;;0.46;83.89;99457.02;82512;1257;3024684;-74
2023/01/30 06:02:21;;;;;;;11.90;9.00;;;;;;;0.47;83.89;99448.60;82478;1260;3027606;-76
2023/01/30 06:04:54;;;;;;;11.90;8.80;;;;;;;0.46;83.64;99445.35;83802;1269;3011386;-75
2023/01/30 06:07:28;;;;;;;11.90;8.50;;;;;;;0.42;83.41;99430.14;82506;1263;3027796;-75
2023/01/30 06:10:05;;;;;;;11.80;9.00;;;;;;;0.41;83.66;99431.02;83808;1268;3011451;-74
2023/01/30 06:12:42;;;;;;;11.80;8.50;;;;;;;0.42;83.60;99421.55;82462;1264;3026223;-72
2023/01/30 06:15:18;;;;;;;12.70;9.50;;;;;;;0.44;83.66;99412.96;82472;1257;3025817;-73
2023/01/30 06:17:53;;;;;;;13.00;9.80;;;;;;;0.45;83.44;99415.17;83231;1256;3011480;-71
2023/01/30 06:20:26;;;;;;;13.70;10.10;;;;;;;0.44;83.56;99419.13;83745;1263;3012895;-72
2023/01/30 06:22:59;;;;;;;14.10;9.80;;;;;;;0.44;83.45;99417.08;82530;1263;3025644;-72
2023/01/30 06:25:32;;;;;;;11.60;8.90;;;;;;;0.44;83.53;99419.48;83831;1268;3011622;-71
2023/01/30 06:28:06;;;;;;;15.00;10.20;;;;;;;0.46;83.55;99420.31;82434;1260;3026113;-71
2023/01/30 06:30:40;;;;;;;13.60;8.80;;;;;;;0.50;83.56;99417.88;83778;1269;3011979;-70
2023/01/30 06:33:13;;;;;;;11.40;9.40;;;;;;;0.51;82.85;99413.55;82444;1256;3026471;-70
2023/01/30 06:35:47;;;;;;;12.50;9.60;;;;;;;0.47;82.59;99410.35;83795;1262;3011551;-74
2023/01/30 06:38:23;;;;;;;15.20;10.20;;;;;;;0.44;82.58;99407.48;82466;1260;3025274;-75
2023/01/30 06:40:54;;;;;;;13.20;9.60;;;;;;;0.41;82.73;99405.27;83766;1269;3011573;-74
2023/01/30 06:43:29;;;;;;;14.80;10.30;;;;;;;0.41;82.54;99396.34;82465;1269;3025970;-74
2023/01/30 06:46:02;;;;;;;14.80;9.90;;;;;;;0.43;82.29;99391.17;83248;1260;3011543;-74
2023/01/30 06:48:34;;;;;;;16.40;10.90;;;;;;;0.43;82.12;99379.52;83766;1260;3013049;-74
2023/01/30 06:51:07;;;;;;;16.10;11.00;;;;;;;0.42;82.07;99385.54;82516;1258;3026047;-73
2023/01/30 06:53:40;;;;;;;14.30;9.80;;;;;;;0.41;82.23;99386.56;83754;1260;3012793;-73
2023/01/30 06:56:13;;;;;;;11.90;9.60;;;;;;;0.41;82.16;99380.91;82492;1260;3026069;-72
2023/01/30 06:58:45;;;;;;;13.40;10.00;;;;;;;0.44;82.09;99377.09;83749;1262;3011522;-72
2023/01/30 07:01:20;;;;;;;13.20;9.80;;;;;;;0.46;81.96;99378.11;82427;1271;3026351;-74
2023/01/30 07:04:00;;;;;;;15.40;10.60;;;;;;;0.47;81.56;99372.59;83757;1268;3011546;-74
2023/01/30 07:06:32;;;;;;;16.30;11.10;;;;;;;0.47;81.95;99368.14;82429;1264;3026357;-74
2023/01/30 07:09:03;;;;;;;14.50;10.70;;;;;;;0.46;81.45;99367.97;83734;1258;3011525;-74
2023/01/30 07:11:36;;;;;;;13.80;10.40;;;;;;;0.47;81.25;99362.13;82462;1262;3026555;-74
2023/01/30 07:14:12;;;;;;;12.30;9.50;;;;;;;0.49;81.49;99356.79;83189;1262;3011687;-74
2023/01/30 07:16:46;;;;;;;14.90;11.00;;;;;;;0.52;81.64;99348.51;83766;1264;3011337;-74
2023/01/30 07:19:25;;;;;;;12.90;10.30;;;;;;;0.56;81.54;99347.77;82442;1260;3025937;-75
2023/01/30 07:21:58;;;;;;;15.00;11.50;;;;;;;0.57;81.52;99348.26;82470;1256;3026476;-73
2023/01/30 07:24:29;;;;;;;17.90;11.50;;;;;;;0.56;81.25;99341.08;83775;1258;3011425;-75
2023/01/30 07:27:02;;;;;;;14.90;11.20;;;;;;;0.51;81.22;99333.08;82451;1262;3025819;-74
2023/01/30 07:29:35;;;;;;;14.60;10.30;;;;;;;0.50;81.41;99324.85;83731;1268;3011276;-74
2023/01/30 07:32:09;;;;;;;13.80;10.20;;;;;;;0.51;81.61;99322.79;82430;1263;3026210;-74
2023/01/30 07:34:43;;;;;;;13.20;10.50;;;;;;;0.50;81.60;99319.19;83206;1269;3013229;-74
2023/01/30 07:37:14;;;;;;;14.40;11.30;;;;;;;0.48;81.96;99320.25;83767;1260;3013396;-75
2023/01/30 07:39:46;;;;;;;15.60;11.60;;;;;;;0.46;82.05;99325.08;82032;1260;3563809;-73
2023/01/30 07:42:19;;;;;;;17.20;11.90;;;;;;;0.43;82.28;99320.66;83779;1260;3013007;-73
2023/01/30 07:44:52;;;;;;;15.70;10.70;;;;;;;0.43;82.38;99314.31;82409;1273;3026069;-74
2023/01/30 07:47:25;;;;;;;15.60;11.50;;;;;;;0.42;82.28;99307.13;83732;1262;3011292;-74
2023/01/30 07:49:59;;;;;;;15.70;12.00;;;;;;;0.42;82.57;99300.25;82442;1258;3024632;-72
2023/01/30 07:52:33;;;;;;;16.30;11.80;;;;;;;0.41;82.84;99300.97;83775;1269;3013389;-71
2023/01/30 07:55:06;;;;;;;18.50;12.70;;;;;;;0.38;82.96;99300.66;82466;1267;3024458;-72
2023/01/30 07:57:38;;;;;;;16.10;11.40;;;;;;;0.34;83.23;99300.71;83756;1270;3011487;-74
2023/01/30 08:00:15;;;;;;;17.30;11.60;;;;;;;0.34;83.30;99295.40;82469;1268;3026554;-74
2023/01/30 08:02:50;;;;;;;16.60;11.70;;;;;;;0.35;83.48;99289.21;82395;1258;3026309;-74
2023/01/30 08:05:23;;;;;;;16.40;12.00;;;;;;;0.37;83.55;99284.54;83195;1266;3013395;-73
2023/01/30 08:07:56;;;;;;;18.00;12.90;;;;;;;0.40;83.87;99285.52;83623;1258;3013258;-73
2023/01/30 08:10:28;;;;;;;16.70;12.40;;;;;;;0.40;84.02;99283.98;82419;1256;3026866;-73
2023/01/30 08:12:59;;;;;;;16.70;12.50;;;;;;;0.39;83.86;99274.40;83681;1260;3013302;-74
2023/01/30 08:15:33;;;;;;;17.20;12.20;;;;;;;0.39;83.89;99272.67;82434;1258;3027050;-73
2023/01/30 08:18:06;;;;;;;20.60;12.90;;;;;;;0.39;84.11;99267.18;83727;1269;3011502;-72
2023/01/30 08:20:41;;;;;;;19.70;13.30;;;;;;;0.42;84.26;99268.16;82334;1263;3024542;-72
2023/01/30 08:23:15;;;;;;;22.30;14.70;;;;;;;0.44;84.30;99264.04;82422;1269;3026402;-72
2023/01/30 08:25:46;;;;;;;19.70;13.30;;;;;;;0.43;84.23;99262.48;83782;1262;3013439;-72
2023/01/30 08:28:19;;;;;;;16.80;12.50;;;;;;;0.45;84.41;99261.63;82315;1264;3025322;-71
2023/01/30 08:30:51;;;;;;;18.90;13.40;;;;;;;0.49;84.36;99257.78;83742;1269;3011666;-73
2023/01/30 08:33:23;;;;;;;18.70;13.80;;;;;;;0.49;84.27;99255.88;82404;1256;3026622;-73
2023/01/30 08:35:54;;;;;;;21.60;14.80;;;;;;;0.49;84.26;99256.77;83750;1257;3011582;-73
2023/01/30 08:38:27;;;;;;;22.10;15.10;;;;;;;0.46;84.38;99250.95;82433;1262;3026261;-73
2023/01/30 08:40:59;;;;;;;20.50;14.20;;;;;;;0.43;84.35;99252.05;83751;1269;3012002;-72
2023/01/30 08:43:32;;;;;;;21.90;15.00;;;;;;;0.37;84.17;99249.88;82391;1261;3025919;-71
2023/01/30 08:46:05;;;;;;;20.50;14.60;;;;;;;0.37;84.37;99245.45;83775;1257;3011384;-71
2023/01/30 08:48:39;;;;;;;19.90;14.10;;;;;;;0.37;84.57;99240.45;82426;1261;3027633;-71
2023/01/30 08:51:10;;;;;;;20.60;15.10;;;;;;;0.37;84.67;99237.88;83777;1270;3011352;-71
2023/01/30 08:53:44;;;;;;;20.20;15.10;;;;;;;0.38;84.77;99229.30;82418;1260;3027577;-71
2023/01/30 08:56:15;;;;;;;21.90;14.70;;;;;;;0.36;84.69;99224.52;83756;1258;3011904;-73
2023/01/30 08:58:48;;;;;;;20.60;14.60;;;;;;;0.37;84.87;99222.27;82413;1262;3026203;-73
2023/01/30 09:01:19;;;;;;;16.60;13.40;;;;;;;0.41;84.95;99220.50;83745;1270;3011631;-73
2023/01/30 09:03:55;;;;;;;19.60;14.80;;;;;;;0.44;85.11;99218.73;82411;1257;3025933;-73
2023/01/30 09:06:27;;;;;;;22.00;15.90;;;;;;;0.49;85.17;99215.91;82429;1260;3025913;-73
2023/01/30 09:08:59;;;;;;;22.30;15.70;;;;;;;0.54;85.13;99205.70;83732;1258;3011412;-73
2023/01/30 09:11:33;;;;;;;21.00;14.50;;;;;;;0.55;84.94;99203.13;82450;1258;3027764;-71
2023/01/30 09:14:04;;;;;;;20.70;14.20;;;;;;;0.56;84.99;99187.67;83770;1261;3012724;-71
2023/01/30 09:16:36;;;;;;;20.70;15.40;;;;;;;0.56;84.93;99193.33;82429;1258;3026150;-72
2023/01/30 09:19:08;;;;;;;21.40;15.30;;;;;;;0.58;84.91;99190.21;83758;1260;3011579;-74
2023/01/30 09:21:46;;;;;;;22.00;15.80;;;;;;;0.57;84.90;99183.36;82426;1258;3026296;-72
2023/01/30 09:24:25;;;;;;;21.30;15.90;;;;;;;0.53;84.80;99181.52;82414;1269;3024607;-72
2023/01/30 09:26:58;;;;;;;19.70;14.50;;;;;;;0.57;84.99;99176.84;82417;1260;3025590;-73
2023/01/30 09:29:29;;;;;;;19.90;14.70;;;;;;;0.60;84.99;99174.55;83737;1258;3011244;-74
2023/01/30 09:32:01;;;;;;;20.70;14.90;;;;;;;0.64;84.92;99169.68;82456;1261;3025572;-72
2023/01/30 09:34:33;;;;;;;20.50;15.70;;;;;;;0.66;84.98;99171.37;83743;1261;3011486;-72
2023/01/30 09:37:07;;;;;;;23.10;16.30;;;;;;;0.63;84.71;99161.45;82440;1257;3025541;-74
2023/01/30 09:39:38;;;;;;;17.80;14.40;;;;;;;0.60;84.69;99159.27;83758;1257;3011527;-73
2023/01/30 09:42:42;;;;;;;20.70;14.30;;;;;;;0.59;84.69;99157.92;82427;1260;3026179;-71
2023/01/30 09:45:44;;;;;;;20.30;15.00;;;;;;;0.62;84.71;99148.95;82421;1258;3027297;-72
2023/01/30 09:48:26;;;;;;;20.70;15.40;;;;;;;0.63;84.99;99151.85;82438;1258;3025223;-73
2023/01/30 09:51:25;;;;;;;23.30;16.50;;;;;;;0.64;84.93;99142.91;82434;1260;3025643;-71
2023/01/30 09:54:19;;;;;;;22.20;15.70;;;;;;;0.62;85.21;99130.06;82471;1261;3026391;-70
2023/01/30 09:57:13;;;;;;;21.00;15.50;;;;;;;0.63;85.01;99122.34;82463;1257;3025680;-72
2023/01/30 09:59:53;;;;;;;21.10;15.40;;;;;;;0.68;85.34;99114.33;82470;1260;3026023;-72
2023/01/30 10:02:48;;;;;;;21.10;15.80;;;;;;;0.74;85.50;99118.88;82450;1259;3025500;-71
2023/01/30 10:05:24;;;;;;;19.80;15.00;;;;;;;0.77;85.23;99116.58;82491;1257;3026296;-73
2023/01/30 10:08:08;;;;;;;20.60;14.50;;;;;;;0.77;85.16;99114.35;83179;1260;3012605;-73
2023/01/30 10:10:47;;;;;;;21.60;14.20;;;;;;;0.76;85.23;99108.02;82466;1256;3025854;-72
2023/01/30 10:13:33;;;;;;;20.20;14.50;;;;;;;0.78;85.21;99108.50;82447;1258;3025899;-71
2023/01/30 10:16:10;;;;;;;18.60;14.70;;;;;;;0.76;85.16;99092.73;82497;1261;3025119;-70
2023/01/30 10:19:15;;;;;;;20.30;15.40;;;;;;;0.76;85.43;99086.89;82442;1260;3025617;-72
2023/01/30 10:21:55;;;;;;;22.30;14.70;;;;;;;0.77;85.62;99078.98;82367;1263;3024559;-72
2023/01/30 10:24:37;;;;;;;20.50;14.50;;;;;;;0.79;85.58;99076.38;82440;1260;3025800;-72
2023/01/30 10:27:13;;;;;;;19.40;14.00;;;;;;;0.79;85.52;99070.03;82458;1261;3025394;-71
2023/01/30 10:29:47;;;;;;;20.90;14.10;;;;;;;0.78;85.64;99069.34;83230;1258;3011401;-73
2023/01/30 10:32:19;;;;;;;21.10;14.30;;;;;;;0.76;85.59;99060.80;83758;1260;3011364;-74
2023/01/30 10:34:55;;;;;;;24.40;14.80;;;;;;;0.77;85.84;99061.13;82457;1256;3026041;-72
2023/01/30 10:37:30;;;;;;;18.70;13.10;;;;;;;0.81;85.99;99058.98;82483;1258;3026870;-73
2023/01/30 10:40:07;;;;;;;28.30;17.50;;;;;;;0.83;86.04;99053.98;82485;1257;3025559;-73
2023/01/30 10:42:43;;;;;;;27.00;15.20;;;;;;;0.87;86.16;99048.24;82454;1257;3027311;-74
2023/01/30 10:45:20;;;;;;;24.60;16.40;;;;;;;0.90;86.08;99042.69;82482;1258;3024984;-73
2023/01/30 10:48:07;;;;;;;23.80;14.90;;;;;;;0.91;86.21;99034.95;82440;1260;3025710;-73
2023/01/30 10:50:50;;;;;;;18.60;13.30;;;;;;;0.93;86.14;99037.64;82483;1257;3024970;-73
2023/01/30 10:53:33;;;;;;;22.70;15.00;;;;;;;0.97;86.15;99035.66;82316;1264;3025555;-74
2023/01/30 10:56:10;;;;;;;34.80;18.80;;;;;;;1.01;86.22;99038.69;82479;1257;3026639;-73
2023/01/30 10:58:48;;;;;;;26.40;16.80;;;;;;;1.06;86.32;99035.66;82498;1260;3027084;-72
2023/01/30 11:01:24;;;;;;;19.20;13.90;;;;;;;1.10;86.36;99034.55;82459;1260;3025649;-74
2023/01/30 11:04:00;;;;;;;19.30;13.00;;;;;;;1.13;86.19;99033.11;82457;1258;3026294;-72
2023/01/30 11:06:35;;;;;;;23.30;14.60;;;;;;;1.16;86.18;99029.61;82402;1266;3025800;-74
2023/01/30 11:09:11;;;;;;;19.30;13.70;;;;;;;1.19;86.34;99024.05;83190;1260;3011613;-74
2023/01/30 11:11:50;;;;;;;22.60;14.90;;;;;;;1.23;86.22;99021.91;82480;1257;3025999;-73
2023/01/30 11:14:25;;;;;;;16.20;11.60;;;;;;;1.23;86.25;99021.05;82450;1257;3027582;-74
2023/01/30 11:16:57;;;;;;;16.30;11.90;;;;;;;1.25;86.28;99006.73;83778;1259;3013369;-73
2023/01/30 11:19:33;;;;;;;15.90;11.30;;;;;;;1.31;86.37;99004.22;82471;1256;3025808;-73
2023/01/30 11:22:06;;;;;;;14.50;11.20;;;;;;;1.35;86.35;99005.33;82431;1257;3025939;-73
2023/01/30 11:24:41;;;;;;;13.70;10.80;;;;;;;1.37;86.29;99000.63;83801;1260;3011543;-73
2023/01/30 11:27:21;;;;;;;13.90;10.90;;;;;;;1.40;86.42;98996.11;82494;1261;3024829;-75
2023/01/30 11:29:53;;;;;;;12.00;9.50;;;;;;;1.43;86.43;98995.68;82477;1258;3025881;-74
2023/01/30 11:32:26;;;;;;;11.70;8.80;;;;;;;1.47;86.54;98988.70;83763;1260;3011443;-73
2023/01/30 11:35:20;;;;;;;12.40;9.20;;;;;;;1.51;86.32;98981.91;82537;1271;3025291;-74
2023/01/30 11:37:55;;;;;;;12.00;9.80;;;;;;;1.52;86.29;98982.56;82493;1257;3026384;-74
2023/01/30 11:40:33;;;;;;;11.40;9.70;;;;;;;1.55;86.32;98977.17;82523;1261;3025949;-74
2023/01/30 11:43:13;;;;;;;11.20;9.20;;;;;;;1.59;86.35;98977.60;82430;1260;3027379;-74
2023/01/30 11:45:47;;;;;;;10.30;8.40;;;;;;;1.64;86.44;98978.85;82505;1260;3028231;-73
2023/01/30 11:48:20;;;;;;;10.50;8.80;;;;;;;1.66;86.18;98973.81;83824;1257;3011574;-73
2023/01/30 11:51:00;;;;;;;10.60;9.30;;;;;;;1.70;86.28;98967.19;82493;1257;3027486;-71
2023/01/30 11:53:35;;;;;;;11.00;9.20;;;;;;;1.73;86.28;98968.34;82485;1260;3024940;-72